sensor_id;sensor_type;location;lat;lon;timestamp;P1;P2;P0
64631;PMS5003;58358;50.936;0.246;2023-04-10T00:00:06;58;52;
64631;PMS5003;58358;50.936;0.246;2023-04-10T00:02:31;56;48;
64631;PMS5003;58358;50.936;0.246;2023-04-10T00:04:56;55;52;
64631;PMS5003;58358;50.936;0.246;2023-04-10T00:07:22;51;47;
64631;PMS5003;58358;50.936;0.246;2023-04-10T00:09:47;51;49;
64631;PMS5003;58358;50.936;0.246;2023-04-10T00:12:13;46;42;
64631;PMS5003;58358;50.936;0.246;2023-04-10T00:14:38;52;48;
64631;PMS5003;58358;50.936;0.246;2023-04-10T00:17:03;46;45;
64631;PMS5003;58358;50.936;0.246;2023-04-10T00:19:29;51;44;
64631;PMS5003;58358;50.936;0.246;2023-04-10T00:21:54;49;44;
64631;PMS5003;58358;50.936;0.246;2023-04-10T00:24:20;46;42;
64631;PMS5003;58358;50.936;0.246;2023-04-10T00:26:45;44;39;
64631;PMS5003;58358;50.936;0.246;2023-04-10T00:29:10;42;40;
64631;PMS5003;58358;50.936;0.246;2023-04-10T00:31:36;42;37;
64631;PMS5003;58358;50.936;0.246;2023-04-10T00:34:01;44;41;
64631;PMS5003;58358;50.936;0.246;2023-04-10T00:36:27;53;48;
64631;PMS5003;58358;50.936;0.246;2023-04-10T00:38:52;43;41;
64631;PMS5003;58358;50.936;0.246;2023-04-10T00:41:18;49;46;
64631;PMS5003;58358;50.936;0.246;2023-04-10T00:43:44;48;44;
64631;PMS5003;58358;50.936;0.246;2023-04-10T00:46:09;44;41;
64631;PMS5003;58358;50.936;0.246;2023-04-10T00:48:35;43;38;
64631;PMS5003;58358;50.936;0.246;2023-04-10T00:51:00;40;39;
64631;PMS5003;58358;50.936;0.246;2023-04-10T00:53:26;42;40;
64631;PMS5003;58358;50.936;0.246;2023-04-10T00:55:51;41;39;
64631;PMS5003;58358;50.936;0.246;2023-04-10T00:58:16;45;42;
64631;PMS5003;58358;50.936;0.246;2023-04-10T01:00:42;36;34;
64631;PMS5003;58358;50.936;0.246;2023-04-10T01:03:08;33;33;
64631;PMS5003;58358;50.936;0.246;2023-04-10T01:05:33;45;37;
64631;PMS5003;58358;50.936;0.246;2023-04-10T01:07:58;39;36;
64631;PMS5003;58358;50.936;0.246;2023-04-10T01:10:26;40;35;
64631;PMS5003;58358;50.936;0.246;2023-04-10T01:12:52;35;34;
64631;PMS5003;58358;50.936;0.246;2023-04-10T01:15:14;42;40;
64631;PMS5003;58358;50.936;0.246;2023-04-10T01:17:40;33;33;
64631;PMS5003;58358;50.936;0.246;2023-04-10T01:20:06;29;28;
64631;PMS5003;58358;50.936;0.246;2023-04-10T01:22:34;20;20;
64631;PMS5003;58358;50.936;0.246;2023-04-10T01:24:59;22;22;
64631;PMS5003;58358;50.936;0.246;2023-04-10T01:27:24;22;20;
64631;PMS5003;58358;50.936;0.246;2023-04-10T01:29:47;21;20;
64631;PMS5003;58358;50.936;0.246;2023-04-10T01:32:12;22;22;
64631;PMS5003;58358;50.936;0.246;2023-04-10T01:34:38;21;19;
64631;PMS5003;58358;50.936;0.246;2023-04-10T01:37:03;23;18;
64631;PMS5003;58358;50.936;0.246;2023-04-10T01:39:28;22;22;
64631;PMS5003;58358;50.936;0.246;2023-04-10T01:41:54;19;19;
64631;PMS5003;58358;50.936;0.246;2023-04-10T01:44:20;22;22;
64631;PMS5003;58358;50.936;0.246;2023-04-10T01:46:45;21;21;
64631;PMS5003;58358;50.936;0.246;2023-04-10T01:49:11;23;21;
64631;PMS5003;58358;50.936;0.246;2023-04-10T01:51:37;26;22;
64631;PMS5003;58358;50.936;0.246;2023-04-10T01:54:01;21;19;
64631;PMS5003;58358;50.936;0.246;2023-04-10T01:56:27;18;16;
64631;PMS5003;58358;50.936;0.246;2023-04-10T01:58:53;20;19;
64631;PMS5003;58358;50.936;0.246;2023-04-10T02:01:19;22;20;
64631;PMS5003;58358;50.936;0.246;2023-04-10T02:03:44;22;20;
64631;PMS5003;58358;50.936;0.246;2023-04-10T02:06:12;20;20;
64631;PMS5003;58358;50.936;0.246;2023-04-10T02:08:36;27;22;
64631;PMS5003;58358;50.936;0.246;2023-04-10T02:11:03;23;23;
64631;PMS5003;58358;50.936;0.246;2023-04-10T02:13:26;24;21;
64631;PMS5003;58358;50.936;0.246;2023-04-10T02:15:52;22;20;
64631;PMS5003;58358;50.936;0.246;2023-04-10T02:18:17;21;19;
64631;PMS5003;58358;50.936;0.246;2023-04-10T02:20:43;26;26;
64631;PMS5003;58358;50.936;0.246;2023-04-10T02:23:08;20;19;
64631;PMS5003;58358;50.936;0.246;2023-04-10T02:25:34;27;23;
64631;PMS5003;58358;50.936;0.246;2023-04-10T02:28:02;23;22;
64631;PMS5003;58358;50.936;0.246;2023-04-10T02:30:25;19;17;
64631;PMS5003;58358;50.936;0.246;2023-04-10T02:32:50;23;21;
64631;PMS5003;58358;50.936;0.246;2023-04-10T02:35:16;25;25;
64631;PMS5003;58358;50.936;0.246;2023-04-10T02:37:41;18;17;
64631;PMS5003;58358;50.936;0.246;2023-04-10T02:40:07;25;23;
64631;PMS5003;58358;50.936;0.246;2023-04-10T02:42:32;24;23;
64631;PMS5003;58358;50.936;0.246;2023-04-10T02:44:58;19;18;
64631;PMS5003;58358;50.936;0.246;2023-04-10T02:47:23;20;18;
64631;PMS5003;58358;50.936;0.246;2023-04-10T02:49:49;24;24;
64631;PMS5003;58358;50.936;0.246;2023-04-10T02:52:14;21;21;
64631;PMS5003;58358;50.936;0.246;2023-04-10T02:54:39;19;19;
64631;PMS5003;58358;50.936;0.246;2023-04-10T02:57:05;25;23;
64631;PMS5003;58358;50.936;0.246;2023-04-10T02:59:31;21;19;
64631;PMS5003;58358;50.936;0.246;2023-04-10T03:01:56;27;22;
64631;PMS5003;58358;50.936;0.246;2023-04-10T03:04:21;23;23;
64631;PMS5003;58358;50.936;0.246;2023-04-10T03:06:47;22;21;
64631;PMS5003;58358;50.936;0.246;2023-04-10T03:09:12;24;24;
64631;PMS5003;58358;50.936;0.246;2023-04-10T03:11:38;23;20;
64631;PMS5003;58358;50.936;0.246;2023-04-10T03:14:03;20;19;
64631;PMS5003;58358;50.936;0.246;2023-04-10T03:16:28;20;20;
64631;PMS5003;58358;50.936;0.246;2023-04-10T03:18:53;21;21;
64631;PMS5003;58358;50.936;0.246;2023-04-10T03:21:19;20;19;
64631;PMS5003;58358;50.936;0.246;2023-04-10T03:23:45;21;21;
64631;PMS5003;58358;50.936;0.246;2023-04-10T03:26:10;21;21;
64631;PMS5003;58358;50.936;0.246;2023-04-10T03:28:35;24;20;
64631;PMS5003;58358;50.936;0.246;2023-04-10T03:31:00;22;21;
64631;PMS5003;58358;50.936;0.246;2023-04-10T03:33:26;23;22;
64631;PMS5003;58358;50.936;0.246;2023-04-10T03:35:51;24;22;
64631;PMS5003;58358;50.936;0.246;2023-04-10T03:38:17;24;22;
64631;PMS5003;58358;50.936;0.246;2023-04-10T03:40:42;21;20;
64631;PMS5003;58358;50.936;0.246;2023-04-10T03:43:07;20;20;
64631;PMS5003;58358;50.936;0.246;2023-04-10T03:45:33;20;18;
64631;PMS5003;58358;50.936;0.246;2023-04-10T03:47:58;27;26;
64631;PMS5003;58358;50.936;0.246;2023-04-10T03:50:23;21;21;
64631;PMS5003;58358;50.936;0.246;2023-04-10T03:52:49;24;23;
64631;PMS5003;58358;50.936;0.246;2023-04-10T03:55:14;22;21;
64631;PMS5003;58358;50.936;0.246;2023-04-10T03:57:40;25;25;
64631;PMS5003;58358;50.936;0.246;2023-04-10T04:00:06;22;20;
64631;PMS5003;58358;50.936;0.246;2023-04-10T04:02:31;25;23;
64631;PMS5003;58358;50.936;0.246;2023-04-10T04:04:56;26;19;
64631;PMS5003;58358;50.936;0.246;2023-04-10T04:07:21;23;22;
64631;PMS5003;58358;50.936;0.246;2023-04-10T04:09:47;24;24;
64631;PMS5003;58358;50.936;0.246;2023-04-10T04:12:12;30;29;
64631;PMS5003;58358;50.936;0.246;2023-04-10T04:14:38;25;23;
64631;PMS5003;58358;50.936;0.246;2023-04-10T04:17:03;25;24;
64631;PMS5003;58358;50.936;0.246;2023-04-10T04:19:29;26;26;
64631;PMS5003;58358;50.936;0.246;2023-04-10T04:21:54;27;25;
64631;PMS5003;58358;50.936;0.246;2023-04-10T04:24:20;26;25;
64631;PMS5003;58358;50.936;0.246;2023-04-10T04:26:45;21;20;
64631;PMS5003;58358;50.936;0.246;2023-04-10T04:29:11;23;23;
64631;PMS5003;58358;50.936;0.246;2023-04-10T04:31:36;22;21;
64631;PMS5003;58358;50.936;0.246;2023-04-10T04:34:01;27;26;
64631;PMS5003;58358;50.936;0.246;2023-04-10T04:36:27;28;25;
64631;PMS5003;58358;50.936;0.246;2023-04-10T04:38:53;27;24;
64631;PMS5003;58358;50.936;0.246;2023-04-10T04:41:18;34;30;
64631;PMS5003;58358;50.936;0.246;2023-04-10T04:43:43;38;35;
64631;PMS5003;58358;50.936;0.246;2023-04-10T04:46:09;34;29;
64631;PMS5003;58358;50.936;0.246;2023-04-10T04:48:35;27;27;
64631;PMS5003;58358;50.936;0.246;2023-04-10T04:51:00;30;28;
64631;PMS5003;58358;50.936;0.246;2023-04-10T04:53:26;27;27;
64631;PMS5003;58358;50.936;0.246;2023-04-10T04:55:52;34;30;
64631;PMS5003;58358;50.936;0.246;2023-04-10T04:58:17;33;28;
64631;PMS5003;58358;50.936;0.246;2023-04-10T05:00:42;35;34;
64631;PMS5003;58358;50.936;0.246;2023-04-10T05:03:07;35;34;
64631;PMS5003;58358;50.936;0.246;2023-04-10T05:05:33;34;28;
64631;PMS5003;58358;50.936;0.246;2023-04-10T05:07:58;37;35;
64631;PMS5003;58358;50.936;0.246;2023-04-10T05:10:24;34;34;
64631;PMS5003;58358;50.936;0.246;2023-04-10T05:12:49;29;28;
64631;PMS5003;58358;50.936;0.246;2023-04-10T05:15:14;32;31;
64631;PMS5003;58358;50.936;0.246;2023-04-10T05:17:39;36;34;
64631;PMS5003;58358;50.936;0.246;2023-04-10T05:20:05;39;37;
64631;PMS5003;58358;50.936;0.246;2023-04-10T05:22:31;43;40;
64631;PMS5003;58358;50.936;0.246;2023-04-10T05:24:56;37;31;
64631;PMS5003;58358;50.936;0.246;2023-04-10T05:27:22;38;34;
64631;PMS5003;58358;50.936;0.246;2023-04-10T05:29:48;37;37;
64631;PMS5003;58358;50.936;0.246;2023-04-10T05:32:13;42;38;
64631;PMS5003;58358;50.936;0.246;2023-04-10T05:34:38;34;34;
64631;PMS5003;58358;50.936;0.246;2023-04-10T05:37:04;37;34;
64631;PMS5003;58358;50.936;0.246;2023-04-10T05:39:29;42;39;
64631;PMS5003;58358;50.936;0.246;2023-04-10T05:41:55;36;36;
64631;PMS5003;58358;50.936;0.246;2023-04-10T05:44:20;40;39;
64631;PMS5003;58358;50.936;0.246;2023-04-10T05:46:46;39;37;
64631;PMS5003;58358;50.936;0.246;2023-04-10T05:49:11;48;39;
64631;PMS5003;58358;50.936;0.246;2023-04-10T05:51:36;41;35;
64631;PMS5003;58358;50.936;0.246;2023-04-10T05:54:02;42;39;
64631;PMS5003;58358;50.936;0.246;2023-04-10T05:56:28;31;30;
64631;PMS5003;58358;50.936;0.246;2023-04-10T05:58:53;36;33;
64631;PMS5003;58358;50.936;0.246;2023-04-10T06:01:19;37;35;
64631;PMS5003;58358;50.936;0.246;2023-04-10T06:03:44;35;31;
64631;PMS5003;58358;50.936;0.246;2023-04-10T06:06:10;30;28;
64631;PMS5003;58358;50.936;0.246;2023-04-10T06:08:35;32;29;
64631;PMS5003;58358;50.936;0.246;2023-04-10T06:11:01;26;25;
64631;PMS5003;58358;50.936;0.246;2023-04-10T06:13:26;33;31;
64631;PMS5003;58358;50.936;0.246;2023-04-10T06:15:51;28;27;
64631;PMS5003;58358;50.936;0.246;2023-04-10T06:18:17;28;27;
64631;PMS5003;58358;50.936;0.246;2023-04-10T06:20:42;32;30;
64631;PMS5003;58358;50.936;0.246;2023-04-10T06:23:07;30;28;
64631;PMS5003;58358;50.936;0.246;2023-04-10T06:25:33;31;28;
64631;PMS5003;58358;50.936;0.246;2023-04-10T06:27:59;26;24;
64631;PMS5003;58358;50.936;0.246;2023-04-10T06:30:24;20;20;
64631;PMS5003;58358;50.936;0.246;2023-04-10T06:32:50;28;27;
64631;PMS5003;58358;50.936;0.246;2023-04-10T06:35:16;25;25;
64631;PMS5003;58358;50.936;0.246;2023-04-10T06:37:41;27;24;
64631;PMS5003;58358;50.936;0.246;2023-04-10T06:40:07;26;25;
64631;PMS5003;58358;50.936;0.246;2023-04-10T06:42:32;24;23;
64631;PMS5003;58358;50.936;0.246;2023-04-10T06:44:57;24;21;
64631;PMS5003;58358;50.936;0.246;2023-04-10T06:47:23;20;20;
64631;PMS5003;58358;50.936;0.246;2023-04-10T06:49:48;27;26;
64631;PMS5003;58358;50.936;0.246;2023-04-10T06:52:13;21;18;
64631;PMS5003;58358;50.936;0.246;2023-04-10T06:54:38;22;22;
64631;PMS5003;58358;50.936;0.246;2023-04-10T06:57:04;23;21;
64631;PMS5003;58358;50.936;0.246;2023-04-10T06:59:29;24;21;
64631;PMS5003;58358;50.936;0.246;2023-04-10T07:01:54;27;23;
64631;PMS5003;58358;50.936;0.246;2023-04-10T07:04:20;23;21;
64631;PMS5003;58358;50.936;0.246;2023-04-10T07:06:45;24;24;
64631;PMS5003;58358;50.936;0.246;2023-04-10T07:09:10;24;24;
64631;PMS5003;58358;50.936;0.246;2023-04-10T07:11:36;25;23;
64631;PMS5003;58358;50.936;0.246;2023-04-10T07:14:01;20;20;
64631;PMS5003;58358;50.936;0.246;2023-04-10T07:16:26;29;24;
64631;PMS5003;58358;50.936;0.246;2023-04-10T07:18:51;19;19;
64631;PMS5003;58358;50.936;0.246;2023-04-10T07:21:17;23;20;
64631;PMS5003;58358;50.936;0.246;2023-04-10T07:23:42;21;21;
64631;PMS5003;58358;50.936;0.246;2023-04-10T07:26:08;23;21;
64631;PMS5003;58358;50.936;0.246;2023-04-10T07:28:33;22;17;
64631;PMS5003;58358;50.936;0.246;2023-04-10T07:30:59;24;23;
64631;PMS5003;58358;50.936;0.246;2023-04-10T07:33:24;18;17;
64631;PMS5003;58358;50.936;0.246;2023-04-10T07:35:49;22;19;
64631;PMS5003;58358;50.936;0.246;2023-04-10T07:38:15;16;16;
64631;PMS5003;58358;50.936;0.246;2023-04-10T07:40:40;21;16;
64631;PMS5003;58358;50.936;0.246;2023-04-10T07:43:05;18;18;
64631;PMS5003;58358;50.936;0.246;2023-04-10T07:45:31;23;18;
64631;PMS5003;58358;50.936;0.246;2023-04-10T07:47:56;19;19;
64631;PMS5003;58358;50.936;0.246;2023-04-10T07:50:22;17;17;
64631;PMS5003;58358;50.936;0.246;2023-04-10T07:52:48;18;18;
64631;PMS5003;58358;50.936;0.246;2023-04-10T07:55:13;19;19;
64631;PMS5003;58358;50.936;0.246;2023-04-10T07:57:39;18;18;
64631;PMS5003;58358;50.936;0.246;2023-04-10T08:00:06;19;18;
64631;PMS5003;58358;50.936;0.246;2023-04-10T08:02:29;20;19;
64631;PMS5003;58358;50.936;0.246;2023-04-10T08:04:55;21;17;
64631;PMS5003;58358;50.936;0.246;2023-04-10T08:07:21;18;17;
64631;PMS5003;58358;50.936;0.246;2023-04-10T08:09:46;19;19;
64631;PMS5003;58358;50.936;0.246;2023-04-10T08:12:12;21;16;
64631;PMS5003;58358;50.936;0.246;2023-04-10T08:14:38;19;19;
64631;PMS5003;58358;50.936;0.246;2023-04-10T08:17:03;18;18;
64631;PMS5003;58358;50.936;0.246;2023-04-10T08:19:29;16;16;
64631;PMS5003;58358;50.936;0.246;2023-04-10T08:21:54;19;19;
64631;PMS5003;58358;50.936;0.246;2023-04-10T08:24:19;20;20;
64631;PMS5003;58358;50.936;0.246;2023-04-10T08:26:44;24;22;
64631;PMS5003;58358;50.936;0.246;2023-04-10T08:29:10;29;28;
64631;PMS5003;58358;50.936;0.246;2023-04-10T08:31:35;18;17;
64631;PMS5003;58358;50.936;0.246;2023-04-10T08:34:01;15;13;
64631;PMS5003;58358;50.936;0.246;2023-04-10T08:36:27;14;13;
64631;PMS5003;58358;50.936;0.246;2023-04-10T08:38:53;15;15;
64631;PMS5003;58358;50.936;0.246;2023-04-10T08:41:18;16;16;
64631;PMS5003;58358;50.936;0.246;2023-04-10T08:43:43;16;14;
64631;PMS5003;58358;50.936;0.246;2023-04-10T08:46:09;19;15;
64631;PMS5003;58358;50.936;0.246;2023-04-10T08:48:36;19;15;
64631;PMS5003;58358;50.936;0.246;2023-04-10T08:51:00;15;15;
64631;PMS5003;58358;50.936;0.246;2023-04-10T08:53:25;15;14;
64631;PMS5003;58358;50.936;0.246;2023-04-10T08:55:51;14;14;
64631;PMS5003;58358;50.936;0.246;2023-04-10T08:58:17;14;14;
64631;PMS5003;58358;50.936;0.246;2023-04-10T09:00:43;15;15;
64631;PMS5003;58358;50.936;0.246;2023-04-10T09:03:08;16;14;
64631;PMS5003;58358;50.936;0.246;2023-04-10T09:05:34;17;16;
64631;PMS5003;58358;50.936;0.246;2023-04-10T09:08:00;13;13;
64631;PMS5003;58358;50.936;0.246;2023-04-10T09:10:25;15;14;
64631;PMS5003;58358;50.936;0.246;2023-04-10T09:12:50;15;15;
64631;PMS5003;58358;50.936;0.246;2023-04-10T09:15:16;17;13;
64631;PMS5003;58358;50.936;0.246;2023-04-10T09:20:19;11;11;
64631;PMS5003;58358;50.936;0.246;2023-04-10T09:22:34;12;11;
64631;PMS5003;58358;50.936;0.246;2023-04-10T09:24:59;15;15;
64631;PMS5003;58358;50.936;0.246;2023-04-10T09:27:27;10;10;
64631;PMS5003;58358;50.936;0.246;2023-04-10T09:29:51;8;8;
64631;PMS5003;58358;50.936;0.246;2023-04-10T09:37:08;9;8;
64631;PMS5003;58358;50.936;0.246;2023-04-10T09:39:34;6;6;
64631;PMS5003;58358;50.936;0.246;2023-04-10T09:41:59;7;7;
64631;PMS5003;58358;50.936;0.246;2023-04-10T09:44:27;6;5;
64631;PMS5003;58358;50.936;0.246;2023-04-10T09:46:51;8;6;
64631;PMS5003;58358;50.936;0.246;2023-04-10T09:49:17;8;8;
64631;PMS5003;58358;50.936;0.246;2023-04-10T09:51:43;7;7;
64631;PMS5003;58358;50.936;0.246;2023-04-10T09:54:07;8;8;
64631;PMS5003;58358;50.936;0.246;2023-04-10T09:56:35;8;7;
64631;PMS5003;58358;50.936;0.246;2023-04-10T09:58:59;7;7;
64631;PMS5003;58358;50.936;0.246;2023-04-10T10:01:25;7;6;
64631;PMS5003;58358;50.936;0.246;2023-04-10T10:03:50;9;6;
64631;PMS5003;58358;50.936;0.246;2023-04-10T10:06:16;10;10;
64631;PMS5003;58358;50.936;0.246;2023-04-10T10:08:42;10;10;
64631;PMS5003;58358;50.936;0.246;2023-04-10T10:11:07;7;7;
64631;PMS5003;58358;50.936;0.246;2023-04-10T10:13:34;17;15;
64631;PMS5003;58358;50.936;0.246;2023-04-10T10:16:02;7;6;
64631;PMS5003;58358;50.936;0.246;2023-04-10T10:18:26;9;8;
64631;PMS5003;58358;50.936;0.246;2023-04-10T10:20:50;9;8;
64631;PMS5003;58358;50.936;0.246;2023-04-10T10:23:16;9;9;
64631;PMS5003;58358;50.936;0.246;2023-04-10T10:25:42;12;9;
64631;PMS5003;58358;50.936;0.246;2023-04-10T10:28:07;9;9;
64631;PMS5003;58358;50.936;0.246;2023-04-10T10:30:33;11;8;
64631;PMS5003;58358;50.936;0.246;2023-04-10T10:33:00;9;8;
64631;PMS5003;58358;50.936;0.246;2023-04-10T10:35:24;7;7;
64631;PMS5003;58358;50.936;0.246;2023-04-10T10:37:59;7;7;
64631;PMS5003;58358;50.936;0.246;2023-04-10T10:40:16;9;9;
64631;PMS5003;58358;50.936;0.246;2023-04-10T10:42:41;13;10;
64631;PMS5003;58358;50.936;0.246;2023-04-10T10:45:08;8;8;
64631;PMS5003;58358;50.936;0.246;2023-04-10T10:47:32;11;11;
64631;PMS5003;58358;50.936;0.246;2023-04-10T10:49:58;11;11;
64631;PMS5003;58358;50.936;0.246;2023-04-10T10:54:48;10;9;
64631;PMS5003;58358;50.936;0.246;2023-04-10T11:02:12;9;9;
64631;PMS5003;58358;50.936;0.246;2023-04-10T11:06:56;14;13;
64631;PMS5003;58358;50.936;0.246;2023-04-10T11:14:13;16;13;
64631;PMS5003;58358;50.936;0.246;2023-04-10T11:16:40;18;18;
64631;PMS5003;58358;50.936;0.246;2023-04-10T11:19:05;15;12;
64631;PMS5003;58358;50.936;0.246;2023-04-10T11:21:29;14;13;
64631;PMS5003;58358;50.936;0.246;2023-04-10T11:24:01;14;13;
64631;PMS5003;58358;50.936;0.246;2023-04-10T11:28:45;18;18;
64631;PMS5003;58358;50.936;0.246;2023-04-10T11:31:14;16;14;
64631;PMS5003;58358;50.936;0.246;2023-04-10T11:33:35;24;21;
64631;PMS5003;58358;50.936;0.246;2023-04-10T11:36:01;18;14;
64631;PMS5003;58358;50.936;0.246;2023-04-10T11:38:27;19;17;
64631;PMS5003;58358;50.936;0.246;2023-04-10T11:40:53;13;11;
64631;PMS5003;58358;50.936;0.246;2023-04-10T11:43:17;13;12;
64631;PMS5003;58358;50.936;0.246;2023-04-10T11:45:43;21;14;
64631;PMS5003;58358;50.936;0.246;2023-04-10T11:48:08;17;17;
64631;PMS5003;58358;50.936;0.246;2023-04-10T11:50:34;12;12;
64631;PMS5003;58358;50.936;0.246;2023-04-10T11:52:59;20;14;
64631;PMS5003;58358;50.936;0.246;2023-04-10T11:57:50;14;12;
64631;PMS5003;58358;50.936;0.246;2023-04-10T12:05:07;11;11;
64631;PMS5003;58358;50.936;0.246;2023-04-10T12:07:32;13;11;
64631;PMS5003;58358;50.936;0.246;2023-04-10T12:09:58;12;10;
64631;PMS5003;58358;50.936;0.246;2023-04-10T12:14:49;14;13;
64631;PMS5003;58358;50.936;0.246;2023-04-10T12:17:15;14;14;
64631;PMS5003;58358;50.936;0.246;2023-04-10T12:19:40;14;12;
64631;PMS5003;58358;50.936;0.246;2023-04-10T12:22:06;13;12;
64631;PMS5003;58358;50.936;0.246;2023-04-10T12:24:40;15;12;
64631;PMS5003;58358;50.936;0.246;2023-04-10T12:26:57;17;13;
64631;PMS5003;58358;50.936;0.246;2023-04-10T12:29:25;12;10;
64631;PMS5003;58358;50.936;0.246;2023-04-10T12:31:47;10;10;
64631;PMS5003;58358;50.936;0.246;2023-04-10T12:34:17;17;15;
64631;PMS5003;58358;50.936;0.246;2023-04-10T12:36:39;19;15;
64631;PMS5003;58358;50.936;0.246;2023-04-10T12:39:06;14;11;
64631;PMS5003;58358;50.936;0.246;2023-04-10T12:41:31;11;11;
64631;PMS5003;58358;50.936;0.246;2023-04-10T12:46:23;12;12;
64631;PMS5003;58358;50.936;0.246;2023-04-10T12:48:46;19;16;
64631;PMS5003;58358;50.936;0.246;2023-04-10T12:51:12;13;11;
64631;PMS5003;58358;50.936;0.246;2023-04-10T12:53:42;11;9;
64631;PMS5003;58358;50.936;0.246;2023-04-10T12:56:04;14;11;
64631;PMS5003;58358;50.936;0.246;2023-04-10T12:58:28;17;10;
64631;PMS5003;58358;50.936;0.246;2023-04-10T13:00:54;12;9;
64631;PMS5003;58358;50.936;0.246;2023-04-10T13:03:20;15;12;
64631;PMS5003;58358;50.936;0.246;2023-04-10T13:05:45;13;10;
64631;PMS5003;58358;50.936;0.246;2023-04-10T13:08:12;10;9;
64631;PMS5003;58358;50.936;0.246;2023-04-10T13:10:36;16;9;
64631;PMS5003;58358;50.936;0.246;2023-04-10T13:13:01;15;10;
64631;PMS5003;58358;50.936;0.246;2023-04-10T13:15:26;13;10;
64631;PMS5003;58358;50.936;0.246;2023-04-10T13:17:52;14;11;
64631;PMS5003;58358;50.936;0.246;2023-04-10T13:20:18;15;13;
64631;PMS5003;58358;50.936;0.246;2023-04-10T13:22:43;17;10;
64631;PMS5003;58358;50.936;0.246;2023-04-10T13:25:08;13;7;
64631;PMS5003;58358;50.936;0.246;2023-04-10T13:27:34;16;13;
64631;PMS5003;58358;50.936;0.246;2023-04-10T13:29:59;8;7;
64631;PMS5003;58358;50.936;0.246;2023-04-10T13:32:26;8;6;
64631;PMS5003;58358;50.936;0.246;2023-04-10T13:34:51;13;9;
64631;PMS5003;58358;50.936;0.246;2023-04-10T13:37:16;14;10;
64631;PMS5003;58358;50.936;0.246;2023-04-10T13:39:41;13;9;
64631;PMS5003;58358;50.936;0.246;2023-04-10T13:42:07;12;10;
64631;PMS5003;58358;50.936;0.246;2023-04-10T13:44:33;9;9;
64631;PMS5003;58358;50.936;0.246;2023-04-10T13:46:58;11;10;
64631;PMS5003;58358;50.936;0.246;2023-04-10T13:49:24;12;10;
64631;PMS5003;58358;50.936;0.246;2023-04-10T13:51:49;10;9;
64631;PMS5003;58358;50.936;0.246;2023-04-10T13:54:15;13;10;
64631;PMS5003;58358;50.936;0.246;2023-04-10T13:56:41;15;10;
64631;PMS5003;58358;50.936;0.246;2023-04-10T13:59:06;11;8;
64631;PMS5003;58358;50.936;0.246;2023-04-10T14:01:32;14;8;
64631;PMS5003;58358;50.936;0.246;2023-04-10T14:03:57;12;12;
64631;PMS5003;58358;50.936;0.246;2023-04-10T14:06:23;9;6;
64631;PMS5003;58358;50.936;0.246;2023-04-10T14:08:48;12;9;
64631;PMS5003;58358;50.936;0.246;2023-04-10T14:11:18;13;11;
64631;PMS5003;58358;50.936;0.246;2023-04-10T14:13:39;9;9;
64631;PMS5003;58358;50.936;0.246;2023-04-10T14:16:04;11;9;
64631;PMS5003;58358;50.936;0.246;2023-04-10T14:18:30;16;11;
64631;PMS5003;58358;50.936;0.246;2023-04-10T14:20:55;16;12;
64631;PMS5003;58358;50.936;0.246;2023-04-10T14:23:20;18;13;
64631;PMS5003;58358;50.936;0.246;2023-04-10T14:25:46;13;11;
64631;PMS5003;58358;50.936;0.246;2023-04-10T14:28:11;14;10;
64631;PMS5003;58358;50.936;0.246;2023-04-10T14:30:37;16;8;
64631;PMS5003;58358;50.936;0.246;2023-04-10T14:33:02;13;8;
64631;PMS5003;58358;50.936;0.246;2023-04-10T14:35:28;12;11;
64631;PMS5003;58358;50.936;0.246;2023-04-10T14:37:54;9;7;
64631;PMS5003;58358;50.936;0.246;2023-04-10T14:40:19;13;13;
64631;PMS5003;58358;50.936;0.246;2023-04-10T14:42:44;15;11;
64631;PMS5003;58358;50.936;0.246;2023-04-10T14:45:10;16;13;
64631;PMS5003;58358;50.936;0.246;2023-04-10T14:47:36;15;11;
64631;PMS5003;58358;50.936;0.246;2023-04-10T14:50:02;11;10;
64631;PMS5003;58358;50.936;0.246;2023-04-10T14:52:27;13;11;
64631;PMS5003;58358;50.936;0.246;2023-04-10T14:54:53;13;8;
64631;PMS5003;58358;50.936;0.246;2023-04-10T14:57:18;11;11;
64631;PMS5003;58358;50.936;0.246;2023-04-10T14:59:44;14;10;
64631;PMS5003;58358;50.936;0.246;2023-04-10T15:02:09;19;16;
64631;PMS5003;58358;50.936;0.246;2023-04-10T15:07:00;16;13;
64631;PMS5003;58358;50.936;0.246;2023-04-10T15:09:26;13;9;
64631;PMS5003;58358;50.936;0.246;2023-04-10T15:11:56;15;11;
64631;PMS5003;58358;50.936;0.246;2023-04-10T15:14:17;13;10;
64631;PMS5003;58358;50.936;0.246;2023-04-10T15:16:43;12;9;
64631;PMS5003;58358;50.936;0.246;2023-04-10T15:19:08;17;11;
64631;PMS5003;58358;50.936;0.246;2023-04-10T15:21:33;9;7;
64631;PMS5003;58358;50.936;0.246;2023-04-10T15:23:59;11;8;
64631;PMS5003;58358;50.936;0.246;2023-04-10T15:26:24;12;8;
64631;PMS5003;58358;50.936;0.246;2023-04-10T15:28:50;13;10;
64631;PMS5003;58358;50.936;0.246;2023-04-10T15:31:15;15;11;
64631;PMS5003;58358;50.936;0.246;2023-04-10T15:33:40;10;9;
64631;PMS5003;58358;50.936;0.246;2023-04-10T15:36:07;14;11;
64631;PMS5003;58358;50.936;0.246;2023-04-10T15:38:32;11;10;
64631;PMS5003;58358;50.936;0.246;2023-04-10T15:40:56;6;6;
64631;PMS5003;58358;50.936;0.246;2023-04-10T15:43:22;11;8;
64631;PMS5003;58358;50.936;0.246;2023-04-10T15:45:47;10;9;
64631;PMS5003;58358;50.936;0.246;2023-04-10T15:48:13;12;7;
64631;PMS5003;58358;50.936;0.246;2023-04-10T15:50:38;9;9;
64631;PMS5003;58358;50.936;0.246;2023-04-10T15:53:04;9;7;
64631;PMS5003;58358;50.936;0.246;2023-04-10T15:55:29;15;10;
64631;PMS5003;58358;50.936;0.246;2023-04-10T15:57:54;10;6;
64631;PMS5003;58358;50.936;0.246;2023-04-10T16:00:19;12;9;
64631;PMS5003;58358;50.936;0.246;2023-04-10T16:02:44;10;6;
64631;PMS5003;58358;50.936;0.246;2023-04-10T16:05:12;8;5;
64631;PMS5003;58358;50.936;0.246;2023-04-10T16:07:36;14;8;
64631;PMS5003;58358;50.936;0.246;2023-04-10T16:10:01;10;7;
64631;PMS5003;58358;50.936;0.246;2023-04-10T16:12:27;11;7;
64631;PMS5003;58358;50.936;0.246;2023-04-10T16:14:52;12;8;
64631;PMS5003;58358;50.936;0.246;2023-04-10T16:17:17;12;11;
64631;PMS5003;58358;50.936;0.246;2023-04-10T16:19:43;7;7;
64631;PMS5003;58358;50.936;0.246;2023-04-10T16:22:09;11;8;
64631;PMS5003;58358;50.936;0.246;2023-04-10T16:24:34;8;7;
64631;PMS5003;58358;50.936;0.246;2023-04-10T16:26:59;9;8;
64631;PMS5003;58358;50.936;0.246;2023-04-10T16:29:24;6;6;
64631;PMS5003;58358;50.936;0.246;2023-04-10T16:31:50;8;8;
64631;PMS5003;58358;50.936;0.246;2023-04-10T16:34:16;9;7;
64631;PMS5003;58358;50.936;0.246;2023-04-10T16:36:41;11;9;
64631;PMS5003;58358;50.936;0.246;2023-04-10T16:39:06;10;8;
64631;PMS5003;58358;50.936;0.246;2023-04-10T16:41:32;8;8;
64631;PMS5003;58358;50.936;0.246;2023-04-10T16:43:58;12;8;
64631;PMS5003;58358;50.936;0.246;2023-04-10T16:46:23;9;8;
64631;PMS5003;58358;50.936;0.246;2023-04-10T16:48:49;9;8;